sensor_id;sensor_type;location;lat;lon;timestamp;P1;P2;P0
73935;PMS5003;62287;50.858;0.252;2023-03-01T00:00:18;12.0;12.0;
73935;PMS5003;62287;50.858;0.252;2023-03-01T00:00:49;12.0;12.0;
73935;PMS5003;62287;50.858;0.252;2023-03-01T00:01:22;10.0;10.0;
73935;PMS5003;62287;50.858;0.252;2023-03-01T00:01:54;12.0;12.0;
73935;PMS5003;62287;50.858;0.252;2023-03-01T00:02:25;11.0;9.0;
73935;PMS5003;62287;50.858;0.252;2023-03-01T00:02:56;10.0;10.0;
73935;PMS5003;62287;50.858;0.252;2023-03-01T00:03:27;13.0;13.0;
73935;PMS5003;62287;50.858;0.252;2023-03-01T00:03:59;12.0;11.0;
73935;PMS5003;62287;50.858;0.252;2023-03-01T00:04:30;13.0;13.0;
73935;PMS5003;62287;50.858;0.252;2023-03-01T00:05:03;14.0;12.0;
73935;PMS5003;62287;50.858;0.252;2023-03-01T00:05:35;12.0;12.0;
73935;PMS5003;62287;50.858;0.252;2023-03-01T00:06:06;13.0;11.0;
73935;PMS5003;62287;50.858;0.252;2023-03-01T00:06:37;12.0;12.0;
73935;PMS5003;62287;50.858;0.252;2023-03-01T00:07:08;13.0;12.0;
73935;PMS5003;62287;50.858;0.252;2023-03-01T00:07:39;12.0;12.0;
73935;PMS5003;62287;50.858;0.252;2023-03-01T00:08:10;14.0;14.0;
73935;PMS5003;62287;50.858;0.252;2023-03-01T00:08:41;11.0;11.0;
73935;PMS5003;62287;50.858;0.252;2023-03-01T00:09:12;12.0;11.0;
73935;PMS5003;62287;50.858;0.252;2023-03-01T00:09:46;11.0;11.0;
73935;PMS5003;62287;50.858;0.252;2023-03-01T00:10:17;11.0;11.0;
73935;PMS5003;62287;50.858;0.252;2023-03-01T00:10:48;13.0;13.0;
73935;PMS5003;62287;50.858;0.252;2023-03-01T00:11:20;12.0;12.0;
73935;PMS5003;62287;50.858;0.252;2023-03-01T00:11:52;12.0;12.0;
73935;PMS5003;62287;50.858;0.252;2023-03-01T00:12:23;12.0;12.0;
73935;PMS5003;62287;50.858;0.252;2023-03-01T00:12:54;11.0;11.0;
73935;PMS5003;62287;50.858;0.252;2023-03-01T00:13:25;13.0;11.0;
73935;PMS5003;62287;50.858;0.252;2023-03-01T00:13:57;12.0;12.0;
73935;PMS5003;62287;50.858;0.252;2023-03-01T00:14:30;11.0;11.0;
73935;PMS5003;62287;50.858;0.252;2023-03-01T00:15:02;14.0;14.0;
73935;PMS5003;62287;50.858;0.252;2023-03-01T00:15:37;10.0;10.0;
73935;PMS5003;62287;50.858;0.252;2023-03-01T00:16:09;13.0;12.0;
73935;PMS5003;62287;50.858;0.252;2023-03-01T00:16:43;15.0;14.0;
73935;PMS5003;62287;50.858;0.252;2023-03-01T00:17:15;12.0;12.0;
73935;PMS5003;62287;50.858;0.252;2023-03-01T00:17:46;14.0;12.0;
73935;PMS5003;62287;50.858;0.252;2023-03-01T00:18:17;12.0;12.0;
73935;PMS5003;62287;50.858;0.252;2023-03-01T00:18:48;11.0;11.0;
73935;PMS5003;62287;50.858;0.252;2023-03-01T00:19:20;14.0;10.0;
73935;PMS5003;62287;50.858;0.252;2023-03-01T00:19:51;15.0;14.0;
73935;PMS5003;62287;50.858;0.252;2023-03-01T00:20:22;13.0;13.0;
73935;PMS5003;62287;50.858;0.252;2023-03-01T00:20:54;16.0;14.0;
73935;PMS5003;62287;50.858;0.252;2023-03-01T00:21:26;13.0;13.0;
73935;PMS5003;62287;50.858;0.252;2023-03-01T00:21:57;12.0;12.0;
73935;PMS5003;62287;50.858;0.252;2023-03-01T00:22:28;11.0;11.0;
73935;PMS5003;62287;50.858;0.252;2023-03-01T00:22:59;16.0;14.0;
73935;PMS5003;62287;50.858;0.252;2023-03-01T00:23:30;15.0;14.0;
73935;PMS5003;62287;50.858;0.252;2023-03-01T00:24:02;12.0;12.0;
73935;PMS5003;62287;50.858;0.252;2023-03-01T00:24:34;13.0;13.0;
73935;PMS5003;62287;50.858;0.252;2023-03-01T00:25:05;15.0;13.0;
73935;PMS5003;62287;50.858;0.252;2023-03-01T00:25:40;14.0;14.0;
73935;PMS5003;62287;50.858;0.252;2023-03-01T00:26:13;12.0;12.0;
73935;PMS5003;62287;50.858;0.252;2023-03-01T00:26:44;15.0;14.0;
73935;PMS5003;62287;50.858;0.252;2023-03-01T00:27:15;14.0;14.0;
73935;PMS5003;62287;50.858;0.252;2023-03-01T00:27:46;12.0;12.0;
73935;PMS5003;62287;50.858;0.252;2023-03-01T00:28:17;14.0;11.0;
73935;PMS5003;62287;50.858;0.252;2023-03-01T00:28:49;10.0;10.0;
73935;PMS5003;62287;50.858;0.252;2023-03-01T00:29:21;15.0;15.0;
73935;PMS5003;62287;50.858;0.252;2023-03-01T00:29:52;13.0;11.0;
73935;PMS5003;62287;50.858;0.252;2023-03-01T00:30:23;16.0;15.0;
73935;PMS5003;62287;50.858;0.252;2023-03-01T00:30:54;14.0;14.0;
73935;PMS5003;62287;50.858;0.252;2023-03-01T00:31:26;12.0;12.0;
73935;PMS5003;62287;50.858;0.252;2023-03-01T00:31:59;13.0;12.0;
73935;PMS5003;62287;50.858;0.252;2023-03-01T00:32:29;13.0;12.0;
73935;PMS5003;62287;50.858;0.252;2023-03-01T00:33:02;13.0;13.0;
73935;PMS5003;62287;50.858;0.252;2023-03-01T00:33:33;13.0;13.0;
73935;PMS5003;62287;50.858;0.252;2023-03-01T00:34:05;11.0;10.0;
73935;PMS5003;62287;50.858;0.252;2023-03-01T00:34:36;13.0;12.0;
73935;PMS5003;62287;50.858;0.252;2023-03-01T00:35:07;13.0;13.0;
73935;PMS5003;62287;50.858;0.252;2023-03-01T00:35:38;13.0;13.0;
73935;PMS5003;62287;50.858;0.252;2023-03-01T00:36:10;15.0;14.0;
73935;PMS5003;62287;50.858;0.252;2023-03-01T00:36:42;17.0;15.0;
73935;PMS5003;62287;50.858;0.252;2023-03-01T00:37:13;13.0;12.0;
73935;PMS5003;62287;50.858;0.252;2023-03-01T00:37:44;13.0;13.0;
73935;PMS5003;62287;50.858;0.252;2023-03-01T00:38:15;12.0;12.0;
73935;PMS5003;62287;50.858;0.252;2023-03-01T00:38:46;17.0;14.0;
73935;PMS5003;62287;50.858;0.252;2023-03-01T00:39:18;14.0;11.0;
73935;PMS5003;62287;50.858;0.252;2023-03-01T00:39:49;14.0;14.0;
73935;PMS5003;62287;50.858;0.252;2023-03-01T00:40:20;14.0;11.0;
73935;PMS5003;62287;50.858;0.252;2023-03-01T00:40:51;14.0;13.0;
73935;PMS5003;62287;50.858;0.252;2023-03-01T00:41:22;13.0;13.0;
73935;PMS5003;62287;50.858;0.252;2023-03-01T00:41:53;14.0;14.0;
73935;PMS5003;62287;50.858;0.252;2023-03-01T00:42:24;13.0;13.0;
73935;PMS5003;62287;50.858;0.252;2023-03-01T00:42:55;16.0;13.0;
73935;PMS5003;62287;50.858;0.252;2023-03-01T00:43:26;15.0;14.0;
73935;PMS5003;62287;50.858;0.252;2023-03-01T00:43:57;13.0;13.0;
73935;PMS5003;62287;50.858;0.252;2023-03-01T00:44:28;14.0;13.0;
73935;PMS5003;62287;50.858;0.252;2023-03-01T00:44:59;16.0;16.0;
73935;PMS5003;62287;50.858;0.252;2023-03-01T00:45:30;14.0;13.0;
73935;PMS5003;62287;50.858;0.252;2023-03-01T00:46:03;14.0;14.0;
73935;PMS5003;62287;50.858;0.252;2023-03-01T00:46:35;14.0;13.0;
73935;PMS5003;62287;50.858;0.252;2023-03-01T00:47:07;14.0;14.0;
73935;PMS5003;62287;50.858;0.252;2023-03-01T00:47:38;14.0;14.0;
73935;PMS5003;62287;50.858;0.252;2023-03-01T00:48:10;16.0;13.0;
73935;PMS5003;62287;50.858;0.252;2023-03-01T00:48:41;12.0;12.0;
73935;PMS5003;62287;50.858;0.252;2023-03-01T00:49:12;16.0;14.0;
73935;PMS5003;62287;50.858;0.252;2023-03-01T00:49:48;14.0;13.0;
73935;PMS5003;62287;50.858;0.252;2023-03-01T00:50:20;14.0;14.0;
73935;PMS5003;62287;50.858;0.252;2023-03-01T00:50:51;12.0;12.0;
73935;PMS5003;62287;50.858;0.252;2023-03-01T00:51:22;12.0;12.0;
73935;PMS5003;62287;50.858;0.252;2023-03-01T00:51:55;12.0;12.0;
73935;PMS5003;62287;50.858;0.252;2023-03-01T00:52:26;11.0;11.0;
73935;PMS5003;62287;50.858;0.252;2023-03-01T00:52:57;14.0;14.0;
73935;PMS5003;62287;50.858;0.252;2023-03-01T00:53:28;12.0;12.0;
73935;PMS5003;62287;50.858;0.252;2023-03-01T00:54:00;14.0;13.0;
73935;PMS5003;62287;50.858;0.252;2023-03-01T00:54:32;18.0;17.0;
73935;PMS5003;62287;50.858;0.252;2023-03-01T00:55:04;18.0;16.0;
73935;PMS5003;62287;50.858;0.252;2023-03-01T00:55:36;17.0;17.0;
73935;PMS5003;62287;50.858;0.252;2023-03-01T00:56:07;13.0;13.0;
73935;PMS5003;62287;50.858;0.252;2023-03-01T00:56:40;15.0;15.0;
73935;PMS5003;62287;50.858;0.252;2023-03-01T00:57:11;14.0;13.0;
73935;PMS5003;62287;50.858;0.252;2023-03-01T00:57:42;15.0;13.0;
73935;PMS5003;62287;50.858;0.252;2023-03-01T00:58:13;18.0;15.0;
73935;PMS5003;62287;50.858;0.252;2023-03-01T00:58:44;14.0;14.0;
73935;PMS5003;62287;50.858;0.252;2023-03-01T00:59:15;15.0;15.0;
73935;PMS5003;62287;50.858;0.252;2023-03-01T00:59:46;12.0;12.0;
73935;PMS5003;62287;50.858;0.252;2023-03-01T01:00:17;15.0;12.0;
73935;PMS5003;62287;50.858;0.252;2023-03-01T01:00:49;14.0;14.0;
73935;PMS5003;62287;50.858;0.252;2023-03-01T01:01:21;14.0;14.0;
73935;PMS5003;62287;50.858;0.252;2023-03-01T01:01:53;15.0;15.0;
73935;PMS5003;62287;50.858;0.252;2023-03-01T01:02:24;15.0;13.0;
73935;PMS5003;62287;50.858;0.252;2023-03-01T01:02:55;13.0;11.0;
73935;PMS5003;62287;50.858;0.252;2023-03-01T01:03:26;14.0;14.0;
73935;PMS5003;62287;50.858;0.252;2023-03-01T01:03:58;15.0;14.0;
73935;PMS5003;62287;50.858;0.252;2023-03-01T01:04:30;16.0;16.0;
73935;PMS5003;62287;50.858;0.252;2023-03-01T01:05:02;14.0;14.0;
73935;PMS5003;62287;50.858;0.252;2023-03-01T01:05:34;17.0;15.0;
73935;PMS5003;62287;50.858;0.252;2023-03-01T01:06:05;18.0;17.0;
73935;PMS5003;62287;50.858;0.252;2023-03-01T01:06:37;16.0;15.0;
73935;PMS5003;62287;50.858;0.252;2023-03-01T01:07:09;18.0;16.0;
73935;PMS5003;62287;50.858;0.252;2023-03-01T01:07:40;16.0;15.0;
73935;PMS5003;62287;50.858;0.252;2023-03-01T01:08:11;13.0;13.0;
73935;PMS5003;62287;50.858;0.252;2023-03-01T01:08:42;13.0;12.0;
73935;PMS5003;62287;50.858;0.252;2023-03-01T01:09:14;13.0;12.0;
73935;PMS5003;62287;50.858;0.252;2023-03-01T01:09:47;14.0;13.0;
73935;PMS5003;62287;50.858;0.252;2023-03-01T01:10:18;14.0;13.0;
73935;PMS5003;62287;50.858;0.252;2023-03-01T01:10:49;14.0;14.0;
73935;PMS5003;62287;50.858;0.252;2023-03-01T01:11:20;15.0;14.0;
73935;PMS5003;62287;50.858;0.252;2023-03-01T01:11:52;13.0;13.0;
73935;PMS5003;62287;50.858;0.252;2023-03-01T01:12:23;14.0;12.0;
73935;PMS5003;62287;50.858;0.252;2023-03-01T01:12:54;18.0;16.0;
73935;PMS5003;62287;50.858;0.252;2023-03-01T01:13:25;14.0;14.0;
73935;PMS5003;62287;50.858;0.252;2023-03-01T01:13:56;17.0;17.0;
73935;PMS5003;62287;50.858;0.252;2023-03-01T01:14:28;12.0;12.0;
73935;PMS5003;62287;50.858;0.252;2023-03-01T01:14:59;14.0;11.0;
73935;PMS5003;62287;50.858;0.252;2023-03-01T01:15:33;15.0;14.0;
73935;PMS5003;62287;50.858;0.252;2023-03-01T01:16:04;17.0;14.0;
73935;PMS5003;62287;50.858;0.252;2023-03-01T01:16:36;15.0;15.0;
73935;PMS5003;62287;50.858;0.252;2023-03-01T01:17:08;14.0;14.0;
73935;PMS5003;62287;50.858;0.252;2023-03-01T01:17:40;12.0;12.0;
73935;PMS5003;62287;50.858;0.252;2023-03-01T01:18:11;16.0;15.0;
73935;PMS5003;62287;50.858;0.252;2023-03-01T01:18:42;16.0;16.0;
73935;PMS5003;62287;50.858;0.252;2023-03-01T01:19:13;15.0;14.0;
73935;PMS5003;62287;50.858;0.252;2023-03-01T01:19:45;13.0;13.0;
73935;PMS5003;62287;50.858;0.252;2023-03-01T01:20:16;19.0;16.0;
73935;PMS5003;62287;50.858;0.252;2023-03-01T01:20:47;16.0;15.0;
73935;PMS5003;62287;50.858;0.252;2023-03-01T01:21:19;12.0;12.0;
73935;PMS5003;62287;50.858;0.252;2023-03-01T01:21:51;18.0;18.0;
73935;PMS5003;62287;50.858;0.252;2023-03-01T01:22:22;12.0;12.0;
73935;PMS5003;62287;50.858;0.252;2023-03-01T01:22:53;13.0;12.0;
73935;PMS5003;62287;50.858;0.252;2023-03-01T01:23:24;17.0;15.0;
73935;PMS5003;62287;50.858;0.252;2023-03-01T01:23:55;18.0;18.0;
73935;PMS5003;62287;50.858;0.252;2023-03-01T01:24:27;12.0;12.0;
73935;PMS5003;62287;50.858;0.252;2023-03-01T01:24:58;12.0;12.0;
73935;PMS5003;62287;50.858;0.252;2023-03-01T01:25:29;14.0;14.0;
73935;PMS5003;62287;50.858;0.252;2023-03-01T01:26:03;15.0;14.0;
73935;PMS5003;62287;50.858;0.252;2023-03-01T01:26:35;13.0;13.0;
73935;PMS5003;62287;50.858;0.252;2023-03-01T01:27:06;13.0;12.0;
73935;PMS5003;62287;50.858;0.252;2023-03-01T01:27:37;13.0;13.0;
73935;PMS5003;62287;50.858;0.252;2023-03-01T01:28:08;13.0;13.0;
73935;PMS5003;62287;50.858;0.252;2023-03-01T01:28:39;16.0;14.0;
73935;PMS5003;62287;50.858;0.252;2023-03-01T01:29:11;19.0;16.0;
73935;PMS5003;62287;50.858;0.252;2023-03-01T01:29:42;17.0;14.0;
73935;PMS5003;62287;50.858;0.252;2023-03-01T01:30:13;14.0;14.0;
73935;PMS5003;62287;50.858;0.252;2023-03-01T01:30:44;13.0;13.0;
73935;PMS5003;62287;50.858;0.252;2023-03-01T01:31:15;19.0;16.0;
73935;PMS5003;62287;50.858;0.252;2023-03-01T01:31:47;15.0;15.0;
73935;PMS5003;62287;50.858;0.252;2023-03-01T01:32:19;16.0;15.0;
73935;PMS5003;62287;50.858;0.252;2023-03-01T01:32:50;15.0;14.0;
73935;PMS5003;62287;50.858;0.252;2023-03-01T01:33:20;14.0;14.0;
73935;PMS5003;62287;50.858;0.252;2023-03-01T01:33:52;15.0;15.0;
73935;PMS5003;62287;50.858;0.252;2023-03-01T01:34:23;13.0;13.0;
73935;PMS5003;62287;50.858;0.252;2023-03-01T01:34:55;16.0;16.0;
73935;PMS5003;62287;50.858;0.252;2023-03-01T01:35:25;15.0;14.0;
73935;PMS5003;62287;50.858;0.252;2023-03-01T01:35:58;18.0;14.0;
73935;PMS5003;62287;50.858;0.252;2023-03-01T01:36:29;18.0;18.0;
73935;PMS5003;62287;50.858;0.252;2023-03-01T01:37:00;16.0;16.0;
73935;PMS5003;62287;50.858;0.252;2023-03-01T01:37:32;17.0;16.0;
73935;PMS5003;62287;50.858;0.252;2023-03-01T01:38:03;20.0;19.0;
73935;PMS5003;62287;50.858;0.252;2023-03-01T01:38:35;14.0;14.0;
73935;PMS5003;62287;50.858;0.252;2023-03-01T01:39:07;18.0;17.0;
73935;PMS5003;62287;50.858;0.252;2023-03-01T01:39:39;19.0;17.0;
73935;PMS5003;62287;50.858;0.252;2023-03-01T01:40:11;16.0;16.0;
73935;PMS5003;62287;50.858;0.252;2023-03-01T01:40:43;17.0;16.0;
73935;PMS5003;62287;50.858;0.252;2023-03-01T01:41:14;16.0;16.0;
73935;PMS5003;62287;50.858;0.252;2023-03-01T01:41:47;20.0;17.0;
73935;PMS5003;62287;50.858;0.252;2023-03-01T01:42:18;18.0;16.0;
73935;PMS5003;62287;50.858;0.252;2023-03-01T01:42:49;13.0;13.0;
73935;PMS5003;62287;50.858;0.252;2023-03-01T01:43:22;14.0;14.0;
73935;PMS5003;62287;50.858;0.252;2023-03-01T01:44:11;16.0;16.0;
73935;PMS5003;62287;50.858;0.252;2023-03-01T01:44:46;16.0;16.0;
73935;PMS5003;62287;50.858;0.252;2023-03-01T01:45:27;17.0;15.0;
73935;PMS5003;62287;50.858;0.252;2023-03-01T01:46:02;16.0;15.0;
73935;PMS5003;62287;50.858;0.252;2023-03-01T01:46:37;13.0;13.0;
73935;PMS5003;62287;50.858;0.252;2023-03-01T01:47:12;20.0;18.0;
73935;PMS5003;62287;50.858;0.252;2023-03-01T01:47:46;13.0;13.0;
73935;PMS5003;62287;50.858;0.252;2023-03-01T01:48:18;16.0;16.0;
73935;PMS5003;62287;50.858;0.252;2023-03-01T01:48:53;18.0;15.0;
73935;PMS5003;62287;50.858;0.252;2023-03-01T01:49:30;17.0;17.0;
73935;PMS5003;62287;50.858;0.252;2023-03-01T01:50:04;15.0;14.0;
73935;PMS5003;62287;50.858;0.252;2023-03-01T01:50:44;16.0;16.0;
73935;PMS5003;62287;50.858;0.252;2023-03-01T01:51:20;18.0;17.0;
73935;PMS5003;62287;50.858;0.252;2023-03-01T01:51:57;17.0;17.0;
73935;PMS5003;62287;50.858;0.252;2023-03-01T01:52:33;17.0;16.0;
73935;PMS5003;62287;50.858;0.252;2023-03-01T01:53:09;16.0;15.0;
73935;PMS5003;62287;50.858;0.252;2023-03-01T01:53:43;18.0;18.0;
73935;PMS5003;62287;50.858;0.252;2023-03-01T01:54:18;18.0;14.0;
73935;PMS5003;62287;50.858;0.252;2023-03-01T01:54:55;16.0;16.0;
73935;PMS5003;62287;50.858;0.252;2023-03-01T01:55:29;18.0;18.0;
73935;PMS5003;62287;50.858;0.252;2023-03-01T01:56:02;17.0;17.0;
73935;PMS5003;62287;50.858;0.252;2023-03-01T01:56:36;22.0;19.0;
73935;PMS5003;62287;50.858;0.252;2023-03-01T01:57:11;15.0;15.0;
73935;PMS5003;62287;50.858;0.252;2023-03-01T01:57:45;15.0;15.0;
73935;PMS5003;62287;50.858;0.252;2023-03-01T01:58:18;13.0;13.0;
73935;PMS5003;62287;50.858;0.252;2023-03-01T01:58:51;16.0;14.0;
73935;PMS5003;62287;50.858;0.252;2023-03-01T01:59:23;18.0;16.0;
73935;PMS5003;62287;50.858;0.252;2023-03-01T01:59:56;16.0;13.0;
73935;PMS5003;62287;50.858;0.252;2023-03-01T02:00:30;17.0;15.0;
73935;PMS5003;62287;50.858;0.252;2023-03-01T02:01:02;17.0;17.0;
73935;PMS5003;62287;50.858;0.252;2023-03-01T02:01:34;19.0;18.0;
73935;PMS5003;62287;50.858;0.252;2023-03-01T02:02:05;14.0;14.0;
73935;PMS5003;62287;50.858;0.252;2023-03-01T02:02:36;13.0;13.0;
73935;PMS5003;62287;50.858;0.252;2023-03-01T02:03:09;15.0;14.0;
73935;PMS5003;62287;50.858;0.252;2023-03-01T02:03:43;17.0;16.0;
73935;PMS5003;62287;50.858;0.252;2023-03-01T02:04:16;16.0;13.0;
73935;PMS5003;62287;50.858;0.252;2023-03-01T02:04:48;14.0;14.0;
73935;PMS5003;62287;50.858;0.252;2023-03-01T02:05:26;14.0;14.0;
73935;PMS5003;62287;50.858;0.252;2023-03-01T02:06:12;14.0;14.0;
73935;PMS5003;62287;50.858;0.252;2023-03-01T02:06:48;14.0;13.0;
73935;PMS5003;62287;50.858;0.252;2023-03-01T02:07:24;13.0;13.0;
73935;PMS5003;62287;50.858;0.252;2023-03-01T02:07:56;11.0;11.0;
73935;PMS5003;62287;50.858;0.252;2023-03-01T02:08:28;15.0;13.0;
73935;PMS5003;62287;50.858;0.252;2023-03-01T02:09:05;14.0;14.0;
73935;PMS5003;62287;50.858;0.252;2023-03-01T02:09:46;16.0;14.0;
73935;PMS5003;62287;50.858;0.252;2023-03-01T02:10:18;10.0;10.0;
73935;PMS5003;62287;50.858;0.252;2023-03-01T02:10:50;15.0;15.0;
73935;PMS5003;62287;50.858;0.252;2023-03-01T02:11:23;14.0;12.0;
73935;PMS5003;62287;50.858;0.252;2023-03-01T02:11:55;14.0;14.0;
73935;PMS5003;62287;50.858;0.252;2023-03-01T02:12:26;14.0;14.0;
73935;PMS5003;62287;50.858;0.252;2023-03-01T02:12:58;13.0;13.0;
73935;PMS5003;62287;50.858;0.252;2023-03-01T02:13:30;11.0;11.0;
73935;PMS5003;62287;50.858;0.252;2023-03-01T02:14:03;11.0;11.0;
73935;PMS5003;62287;50.858;0.252;2023-03-01T02:14:34;12.0;12.0;
73935;PMS5003;62287;50.858;0.252;2023-03-01T02:15:05;17.0;15.0;
73935;PMS5003;62287;50.858;0.252;2023-03-01T02:15:37;11.0;11.0;
73935;PMS5003;62287;50.858;0.252;2023-03-01T02:16:10;13.0;13.0;
73935;PMS5003;62287;50.858;0.252;2023-03-01T02:16:43;13.0;13.0;
73935;PMS5003;62287;50.858;0.252;2023-03-01T02:17:14;13.0;13.0;
73935;PMS5003;62287;50.858;0.252;2023-03-01T02:17:47;11.0;11.0;
73935;PMS5003;62287;50.858;0.252;2023-03-01T02:18:19;12.0;12.0;
73935;PMS5003;62287;50.858;0.252;2023-03-01T02:18:53;12.0;12.0;
73935;PMS5003;62287;50.858;0.252;2023-03-01T02:19:28;12.0;12.0;
73935;PMS5003;62287;50.858;0.252;2023-03-01T02:20:12;11.0;11.0;
73935;PMS5003;62287;50.858;0.252;2023-03-01T02:20:54;11.0;11.0;
73935;PMS5003;62287;50.858;0.252;2023-03-01T02:21:37;14.0;13.0;
73935;PMS5003;62287;50.858;0.252;2023-03-01T02:22:18;11.0;9.0;
73935;PMS5003;62287;50.858;0.252;2023-03-01T02:22:53;12.0;12.0;
73935;PMS5003;62287;50.858;0.252;2023-03-01T02:23:25;11.0;11.0;
73935;PMS5003;62287;50.858;0.252;2023-03-01T02:23:56;11.0;11.0;
73935;PMS5003;62287;50.858;0.252;2023-03-01T02:24:33;13.0;12.0;
73935;PMS5003;62287;50.858;0.252;2023-03-01T02:25:19;14.0;13.0;
73935;PMS5003;62287;50.858;0.252;2023-03-01T02:25:54;10.0;10.0;
73935;PMS5003;62287;50.858;0.252;2023-03-01T02:26:30;10.0;10.0;
73935;PMS5003;62287;50.858;0.252;2023-03-01T02:27:06;14.0;12.0;
73935;PMS5003;62287;50.858;0.252;2023-03-01T02:27:38;13.0;13.0;
73935;PMS5003;62287;50.858;0.252;2023-03-01T02:28:23;12.0;12.0;
73935;PMS5003;62287;50.858;0.252;2023-03-01T02:28:56;11.0;11.0;
73935;PMS5003;62287;50.858;0.252;2023-03-01T02:29:27;13.0;13.0;
73935;PMS5003;62287;50.858;0.252;2023-03-01T02:29:59;14.0;13.0;
73935;PMS5003;62287;50.858;0.252;2023-03-01T02:30:30;13.0;12.0;
73935;PMS5003;62287;50.858;0.252;2023-03-01T02:31:03;10.0;10.0;
73935;PMS5003;62287;50.858;0.252;2023-03-01T02:31:36;11.0;11.0;
73935;PMS5003;62287;50.858;0.252;2023-03-01T02:32:07;10.0;9.0;
73935;PMS5003;62287;50.858;0.252;2023-03-01T02:32:39;13.0;12.0;
73935;PMS5003;62287;50.858;0.252;2023-03-01T02:33:11;10.0;10.0;
73935;PMS5003;62287;50.858;0.252;2023-03-01T02:33:41;13.0;12.0;
73935;PMS5003;62287;50.858;0.252;2023-03-01T02:34:15;11.0;11.0;
73935;PMS5003;62287;50.858;0.252;2023-03-01T02:34:49;11.0;11.0;
73935;PMS5003;62287;50.858;0.252;2023-03-01T02:35:20;12.0;12.0;
73935;PMS5003;62287;50.858;0.252;2023-03-01T02:35:52;10.0;10.0;
73935;PMS5003;62287;50.858;0.252;2023-03-01T02:36:25;10.0;10.0;
73935;PMS5003;62287;50.858;0.252;2023-03-01T02:37:04;9.0;9.0;
73935;PMS5003;62287;50.858;0.252;2023-03-01T02:37:39;14.0;11.0;
73935;PMS5003;62287;50.858;0.252;2023-03-01T02:38:12;9.0;8.0;
73935;PMS5003;62287;50.858;0.252;2023-03-01T02:38:44;11.0;9.0;
73935;PMS5003;62287;50.858;0.252;2023-03-01T02:39:17;10.0;10.0;
73935;PMS5003;62287;50.858;0.252;2023-03-01T02:39:53;11.0;11.0;
73935;PMS5003;62287;50.858;0.252;2023-03-01T02:40:28;11.0;11.0;
73935;PMS5003;62287;50.858;0.252;2023-03-01T02:41:02;9.0;9.0;
73935;PMS5003;62287;50.858;0.252;2023-03-01T02:41:37;11.0;11.0;
73935;PMS5003;62287;50.858;0.252;2023-03-01T02:42:10;11.0;11.0;
73935;PMS5003;62287;50.858;0.252;2023-03-01T02:42:47;10.0;10.0;
73935;PMS5003;62287;50.858;0.252;2023-03-01T02:43:21;10.0;10.0;
73935;PMS5003;62287;50.858;0.252;2023-03-01T02:43:55;12.0;12.0;
73935;PMS5003;62287;50.858;0.252;2023-03-01T02:44:26;10.0;10.0;
73935;PMS5003;62287;50.858;0.252;2023-03-01T02:44:57;10.0;8.0;
73935;PMS5003;62287;50.858;0.252;2023-03-01T02:45:28;9.0;9.0;
73935;PMS5003;62287;50.858;0.252;2023-03-01T02:46:02;8.0;7.0;
73935;PMS5003;62287;50.858;0.252;2023-03-01T02:46:41;10.0;10.0;
73935;PMS5003;62287;50.858;0.252;2023-03-01T02:47:13;10.0;10.0;
73935;PMS5003;62287;50.858;0.252;2023-03-01T02:47:44;12.0;10.0;
73935;PMS5003;62287;50.858;0.252;2023-03-01T02:48:15;8.0;8.0;
73935;PMS5003;62287;50.858;0.252;2023-03-01T02:48:47;16.0;14.0;
73935;PMS5003;62287;50.858;0.252;2023-03-01T02:49:20;9.0;9.0;
73935;PMS5003;62287;50.858;0.252;2023-03-01T02:49:54;10.0;8.0;
73935;PMS5003;62287;50.858;0.252;2023-03-01T02:50:33;10.0;10.0;
73935;PMS5003;62287;50.858;0.252;2023-03-01T02:51:21;11.0;11.0;
73935;PMS5003;62287;50.858;0.252;2023-03-01T02:52:06;11.0;11.0;
73935;PMS5003;62287;50.858;0.252;2023-03-01T02:52:53;13.0;12.0;
73935;PMS5003;62287;50.858;0.252;2023-03-01T02:53:28;11.0;11.0;
73935;PMS5003;62287;50.858;0.252;2023-03-01T02:54:08;10.0;10.0;
73935;PMS5003;62287;50.858;0.252;2023-03-01T02:54:46;12.0;10.0;
73935;PMS5003;62287;50.858;0.252;2023-03-01T02:55:21;10.0;10.0;
73935;PMS5003;62287;50.858;0.252;2023-03-01T02:55:52;9.0;9.0;
73935;PMS5003;62287;50.858;0.252;2023-03-01T02:56:24;9.0;9.0;
73935;PMS5003;62287;50.858;0.252;2023-03-01T02:56:56;11.0;11.0;
73935;PMS5003;62287;50.858;0.252;2023-03-01T02:57:28;9.0;9.0;
73935;PMS5003;62287;50.858;0.252;2023-03-01T02:58:02;11.0;11.0;
73935;PMS5003;62287;50.858;0.252;2023-03-01T02:58:34;10.0;10.0;
73935;PMS5003;62287;50.858;0.252;2023-03-01T02:59:04;9.0;9.0;
73935;PMS5003;62287;50.858;0.252;2023-03-01T02:59:37;11.0;11.0;
73935;PMS5003;62287;50.858;0.252;2023-03-01T03:00:12;14.0;12.0;
73935;PMS5003;62287;50.858;0.252;2023-03-01T03:00:46;10.0;10.0;
73935;PMS5003;62287;50.858;0.252;2023-03-01T03:01:18;10.0;10.0;
73935;PMS5003;62287;50.858;0.252;2023-03-01T03:01:49;11.0;11.0;
73935;PMS5003;62287;50.858;0.252;2023-03-01T03:02:20;9.0;9.0;
73935;PMS5003;62287;50.858;0.252;2023-03-01T03:02:53;11.0;11.0;
73935;PMS5003;62287;50.858;0.252;2023-03-01T03:03:25;9.0;9.0;
73935;PMS5003;62287;50.858;0.252;2023-03-01T03:03:56;10.0;10.0;
73935;PMS5003;62287;50.858;0.252;2023-03-01T03:04:27;12.0;11.0;
73935;PMS5003;62287;50.858;0.252;2023-03-01T03:04:58;12.0;12.0;
73935;PMS5003;62287;50.858;0.252;2023-03-01T03:05:29;12.0;11.0;
73935;PMS5003;62287;50.858;0.252;2023-03-01T03:06:02;11.0;11.0;
73935;PMS5003;62287;50.858;0.252;2023-03-01T03:06:33;10.0;10.0;
73935;PMS5003;62287;50.858;0.252;2023-03-01T03:07:04;11.0;11.0;
73935;PMS5003;62287;50.858;0.252;2023-03-01T03:07:36;9.0;9.0;
73935;PMS5003;62287;50.858;0.252;2023-03-01T03:08:09;11.0;11.0;
73935;PMS5003;62287;50.858;0.252;2023-03-01T03:08:40;12.0;11.0;
73935;PMS5003;62287;50.858;0.252;2023-03-01T03:09:11;11.0;11.0;
73935;PMS5003;62287;50.858;0.252;2023-03-01T03:09:44;8.0;8.0;
73935;PMS5003;62287;50.858;0.252;2023-03-01T03:10:16;13.0;13.0;
73935;PMS5003;62287;50.858;0.252;2023-03-01T03:10:49;15.0;14.0;
73935;PMS5003;62287;50.858;0.252;2023-03-01T03:11:20;10.0;10.0;
73935;PMS5003;62287;50.858;0.252;2023-03-01T03:11:50;14.0;12.0;
73935;PMS5003;62287;50.858;0.252;2023-03-01T03:12:21;13.0;13.0;
73935;PMS5003;62287;50.858;0.252;2023-03-01T03:12:53;11.0;10.0;
73935;PMS5003;62287;50.858;0.252;2023-03-01T03:13:25;10.0;10.0;
73935;PMS5003;62287;50.858;0.252;2023-03-01T03:13:57;11.0;9.0;
73935;PMS5003;62287;50.858;0.252;2023-03-01T03:14:27;12.0;11.0;
73935;PMS5003;62287;50.858;0.252;2023-03-01T03:14:58;10.0;10.0;
73935;PMS5003;62287;50.858;0.252;2023-03-01T03:15:30;11.0;11.0;
73935;PMS5003;62287;50.858;0.252;2023-03-01T03:16:02;14.0;10.0;
73935;PMS5003;62287;50.858;0.252;2023-03-01T03:16:33;11.0;11.0;
73935;PMS5003;62287;50.858;0.252;2023-03-01T03:17:04;10.0;10.0;
73935;PMS5003;62287;50.858;0.252;2023-03-01T03:17:40;13.0;12.0;
73935;PMS5003;62287;50.858;0.252;2023-03-01T03:18:12;13.0;12.0;
73935;PMS5003;62287;50.858;0.252;2023-03-01T03:18:44;13.0;13.0;
73935;PMS5003;62287;50.858;0.252;2023-03-01T03:19:15;10.0;10.0;
73935;PMS5003;62287;50.858;0.252;2023-03-01T03:19:47;9.0;9.0;
73935;PMS5003;62287;50.858;0.252;2023-03-01T03:20:19;12.0;12.0;
73935;PMS5003;62287;50.858;0.252;2023-03-01T03:20:53;12.0;11.0;
73935;PMS5003;62287;50.858;0.252;2023-03-01T03:21:24;13.0;13.0;
73935;PMS5003;62287;50.858;0.252;2023-03-01T03:21:55;11.0;10.0;
73935;PMS5003;62287;50.858;0.252;2023-03-01T03:22:26;13.0;12.0;
73935;PMS5003;62287;50.858;0.252;2023-03-01T03:22:57;10.0;10.0;
73935;PMS5003;62287;50.858;0.252;2023-03-01T03:23:29;12.0;11.0;